createdAt,value
2023-01-13T00:00:54.475Z,9.57
2023-01-13T00:03:57.451Z,10.07
2023-01-13T00:07:00.110Z,9.85
2023-01-13T00:10:04.988Z,9.75
2023-01-13T00:13:08.066Z,8.10
2023-01-13T00:16:12.911Z,9.82
2023-01-13T00:19:15.613Z,9.17
2023-01-13T00:22:18.359Z,9.02
2023-01-13T00:25:22.625Z,8.93
2023-01-13T00:28:25.897Z,9.35
2023-01-13T00:31:29.700Z,9.80
2023-01-13T00:34:32.493Z,9.53
2023-01-13T00:37:37.546Z,9.10
2023-01-13T00:40:41.528Z,8.85
2023-01-13T00:43:44.199Z,8.50
2023-01-13T00:46:46.962Z,7.65
2023-01-13T00:49:53.267Z,7.87
2023-01-13T00:53:00.153Z,8.68
2023-01-13T00:56:06.089Z,8.98
2023-01-13T00:59:11.473Z,8.40
2023-01-13T01:02:14.266Z,8.27
2023-01-13T01:05:17.267Z,8.53
2023-01-13T01:08:20.128Z,8.82
2023-01-13T01:11:26.119Z,8.85
2023-01-13T01:14:28.843Z,8.20
2023-01-13T01:17:32.553Z,7.88
2023-01-13T01:20:37.161Z,8.37
2023-01-13T01:23:40.746Z,8.40
2023-01-13T01:26:44.987Z,6.90
2023-01-13T01:29:47.689Z,7.90
2023-01-13T01:32:50.440Z,7.22
2023-01-13T01:35:53.634Z,7.03
2023-01-13T01:38:57.830Z,6.32
2023-01-13T01:42:20.775Z,8.05
2023-01-13T01:45:24.971Z,7.70
2023-01-13T01:48:29.657Z,8.60
2023-01-13T01:51:36.853Z,8.53
2023-01-13T01:54:44.044Z,8.02
2023-01-13T01:57:53.669Z,8.18
2023-01-13T02:00:56.409Z,8.23
2023-01-13T02:04:05.203Z,8.30
2023-01-13T02:07:08.323Z,8.97
2023-01-13T02:10:13.611Z,7.25
2023-01-13T02:13:17.635Z,8.50
2023-01-13T02:16:24.639Z,8.05
2023-01-13T02:20:08.463Z,9.15
2023-01-13T02:24:13.463Z,8.83
2023-01-13T02:28:02.793Z,9.27
2023-01-13T02:31:29.006Z,9.00
2023-01-13T02:34:38.946Z,8.52
2023-01-13T02:37:43.939Z,8.98
2023-01-13T02:40:56.784Z,9.23
2023-01-13T02:44:06.711Z,9.93
2023-01-13T02:47:16.211Z,9.02
2023-01-13T02:50:23.073Z,9.98
2023-01-13T02:53:31.680Z,9.55
2023-01-13T02:56:39.629Z,9.17
2023-01-13T02:59:42.995Z,8.65
2023-01-13T03:02:47.695Z,9.93
2023-01-13T03:05:53.813Z,9.15
2023-01-13T03:09:06.726Z,9.10
2023-01-13T03:12:19.400Z,9.00
2023-01-13T03:15:29.474Z,8.38
2023-01-13T03:18:43.935Z,8.27
2023-01-13T03:21:53.782Z,9.85
2023-01-13T03:25:01.962Z,9.90
2023-01-13T03:28:08.887Z,8.70
2023-01-13T03:31:19.305Z,10.50
2023-01-13T03:34:30.268Z,9.63
2023-01-13T03:37:37.769Z,9.35
2023-01-13T03:40:44.786Z,8.68
2023-01-13T03:44:15.258Z,8.93
2023-01-13T03:47:22.427Z,9.55
2023-01-13T03:50:30.979Z,8.85
2023-01-13T03:53:39.679Z,8.55
2023-01-13T03:56:47.505Z,8.45
2023-01-13T03:59:56.168Z,8.17
2023-01-13T04:03:04.839Z,8.88
2023-01-13T04:06:17.089Z,8.07
2023-01-13T04:09:29.843Z,9.10
2023-01-13T04:12:54.295Z,7.43
2023-01-13T04:15:57.127Z,8.27
2023-01-13T04:18:59.957Z,7.18
2023-01-13T04:22:04.101Z,7.22
2023-01-13T04:25:08.006Z,8.18
2023-01-13T04:28:11.781Z,8.05
2023-01-13T04:31:15.196Z,8.70
2023-01-13T04:34:17.883Z,9.93
2023-01-13T04:37:21.876Z,10.00
2023-01-13T04:40:24.754Z,9.02
2023-01-13T04:43:27.300Z,9.40
2023-01-13T04:46:29.971Z,10.70
2023-01-13T04:49:33.252Z,9.68
2023-01-13T04:52:37.314Z,10.07
2023-01-13T04:55:39.995Z,10.25
2023-01-13T04:58:42.678Z,9.50
2023-01-13T05:01:45.403Z,10.20
2023-01-13T05:04:48.432Z,10.02
2023-01-13T05:07:52.510Z,9.15
2023-01-13T05:10:55.506Z,9.20
2023-01-13T05:14:16.409Z,10.13
2023-01-13T05:17:21.077Z,9.90
2023-01-13T05:20:24.843Z,8.98
2023-01-13T05:23:47.703Z,9.70
2023-01-13T05:26:50.381Z,9.57
2023-01-13T05:29:53.785Z,7.75
2023-01-13T05:32:56.914Z,8.77
2023-01-13T05:36:02.780Z,7.25
2023-01-13T05:39:06.783Z,8.57
2023-01-13T05:42:28.195Z,8.88
2023-01-13T05:45:31.612Z,8.43
2023-01-13T05:48:36.159Z,8.67
2023-01-13T05:51:38.761Z,9.30
2023-01-13T05:54:42.805Z,8.45
2023-01-13T05:57:45.482Z,8.68
2023-01-13T06:00:48.787Z,9.65
2023-01-13T06:03:51.476Z,8.93
2023-01-13T06:06:54.162Z,10.30
2023-01-13T06:09:58.226Z,9.30
2023-01-13T06:13:01.136Z,10.07
2023-01-13T06:16:04.179Z,10.48
2023-01-13T06:19:09.037Z,11.90
2023-01-13T06:22:15.779Z,9.48
2023-01-13T06:25:26.204Z,9.70
2023-01-13T06:28:28.917Z,9.60
2023-01-13T06:31:33.809Z,9.13
2023-01-13T06:34:38.103Z,10.33
2023-01-13T06:37:43.471Z,12.25
2023-01-13T06:41:14.091Z,11.63
2023-01-13T06:44:17.735Z,11.70
2023-01-13T06:47:22.415Z,10.98
2023-01-13T06:50:25.541Z,13.80
2023-01-13T06:53:28.239Z,12.48
2023-01-13T06:56:32.348Z,12.20
2023-01-13T06:59:35.338Z,11.32
2023-01-13T07:02:40.351Z,12.13
2023-01-13T07:05:56.245Z,11.27
2023-01-13T07:08:59.303Z,10.52
2023-01-13T07:12:03.914Z,11.10
2023-01-13T07:15:20.133Z,10.25
2023-01-13T07:18:27.637Z,10.32
2023-01-13T07:21:31.076Z,11.47
2023-01-13T07:24:34.199Z,12.07
2023-01-13T07:27:38.708Z,9.75
2023-01-13T07:30:48.452Z,10.52
2023-01-13T07:33:51.442Z,10.25
2023-01-13T07:37:05.664Z,10.70
2023-01-13T07:40:16.556Z,9.75
2023-01-13T07:43:34.912Z,7.88
2023-01-13T07:46:38.342Z,12.40
2023-01-13T07:49:41.145Z,10.30
2023-01-13T07:52:43.909Z,10.47
2023-01-13T07:55:46.737Z,10.10
2023-01-13T07:58:52.964Z,10.63
2023-01-13T08:01:56.124Z,9.30
2023-01-13T08:04:59.937Z,9.18
2023-01-13T08:08:02.598Z,8.37
2023-01-13T08:11:09.188Z,8.65
2023-01-13T08:14:15.909Z,8.70
2023-01-13T08:17:20.446Z,9.60
2023-01-13T08:20:23.671Z,8.93
2023-01-13T08:23:26.409Z,9.23
2023-01-13T08:26:29.126Z,8.95
2023-01-13T08:29:33.378Z,8.80
2023-01-13T08:32:36.176Z,8.18
2023-01-13T08:35:39.822Z,7.93
2023-01-13T08:38:42.728Z,6.53
2023-01-13T08:41:58.756Z,8.32
2023-01-13T08:45:03.171Z,29.23
2023-01-13T08:48:05.977Z,8.30
2023-01-13T08:51:09.500Z,7.85
2023-01-13T08:54:12.583Z,7.33
2023-01-13T08:57:17.107Z,9.65
2023-01-13T09:00:21.932Z,10.38
2023-01-13T09:03:24.815Z,8.30
2023-01-13T09:06:27.703Z,8.35
2023-01-13T09:09:30.687Z,9.53
2023-01-13T09:12:51.882Z,10.15
2023-01-13T09:15:56.951Z,10.05
2023-01-13T09:18:59.961Z,10.40
2023-01-13T09:22:03.809Z,10.77
2023-01-13T09:25:07.222Z,9.63
2023-01-13T09:28:10.189Z,11.77
2023-01-13T09:31:14.509Z,8.18
2023-01-13T09:34:37.823Z,8.70
2023-01-13T09:37:41.625Z,10.02
2023-01-13T09:40:49.022Z,7.93
2023-01-13T09:43:58.115Z,10.50
2023-01-13T09:47:07.109Z,9.07
2023-01-13T09:50:22.039Z,10.00
2023-01-13T09:53:28.858Z,10.95
2023-01-13T09:56:31.898Z,7.73
2023-01-13T09:59:36.522Z,9.60
2023-01-13T10:03:01.609Z,10.55
2023-01-13T10:06:13.516Z,9.73
2023-01-13T10:09:21.873Z,9.25
2023-01-13T10:13:04.827Z,12.37
2023-01-13T10:16:24.071Z,11.82
2023-01-13T10:19:33.117Z,9.68
2023-01-13T10:23:00.120Z,9.80
2023-01-13T10:26:17.922Z,11.43
2023-01-13T10:29:24.908Z,10.30
2023-01-13T10:32:27.949Z,9.13
2023-01-13T10:36:00.696Z,10.15
2023-01-13T10:39:08.721Z,10.45
2023-01-13T10:42:14.453Z,10.65
2023-01-13T10:45:25.425Z,11.17
2023-01-13T10:48:37.664Z,8.75
2023-01-13T10:51:44.980Z,9.70
2023-01-13T10:54:52.354Z,9.70
2023-01-13T10:57:55.336Z,8.52
2023-01-13T11:01:03.992Z,10.27
2023-01-13T11:04:27.036Z,11.07
2023-01-13T11:07:34.136Z,18.38
2023-01-13T11:10:45.427Z,9.43
2023-01-13T11:14:09.590Z,11.00
2023-01-13T11:17:28.006Z,8.60
2023-01-13T11:20:36.973Z,8.43
2023-01-13T11:23:46.627Z,7.43
2023-01-13T11:26:56.576Z,7.68
2023-01-13T11:30:09.955Z,7.05
2023-01-13T11:33:26.633Z,10.77
2023-01-13T11:36:37.779Z,9.30
2023-01-13T11:39:49.237Z,8.05
2023-01-13T11:42:59.955Z,8.35
2023-01-13T11:46:02.943Z,7.82
2023-01-13T11:49:05.999Z,7.27
2023-01-13T11:52:16.525Z,8.75
2023-01-13T11:55:34.266Z,10.13
2023-01-13T11:59:15.268Z,9.25
2023-01-13T12:02:30.749Z,9.40
2023-01-13T12:05:37.285Z,7.67
2023-01-13T12:08:58.463Z,7.93
2023-01-13T12:12:19.585Z,7.47
2023-01-13T12:16:04.771Z,7.80
2023-01-13T12:19:24.411Z,7.47
2023-01-13T12:22:33.766Z,8.93
2023-01-13T12:25:43.824Z,7.10
2023-01-13T12:28:53.033Z,8.00
2023-01-13T12:31:56.505Z,7.07
2023-01-13T12:35:09.066Z,6.65
2023-01-13T12:38:21.120Z,7.97
2023-01-13T12:42:00.269Z,8.60
2023-01-13T12:45:25.979Z,7.75
2023-01-13T12:49:05.244Z,7.95
2023-01-13T12:52:19.867Z,7.30
2023-01-13T12:55:23.713Z,7.63
2023-01-13T12:58:28.558Z,6.85
2023-01-13T13:01:37.669Z,7.10
2023-01-13T13:04:45.081Z,10.30
2023-01-13T13:07:52.059Z,6.10
2023-01-13T13:11:06.535Z,6.63
2023-01-13T13:14:12.392Z,8.02
2023-01-13T13:17:41.387Z,8.02
2023-01-13T13:21:04.235Z,7.45
2023-01-13T13:24:11.067Z,8.02
2023-01-13T13:27:17.452Z,8.00
2023-01-13T13:30:27.808Z,7.15
2023-01-13T13:33:50.382Z,9.57
2023-01-13T13:37:21.774Z,8.15
2023-01-13T13:40:43.558Z,9.65
2023-01-13T13:44:05.225Z,10.33
2023-01-13T13:47:08.485Z,8.38
2023-01-13T13:50:15.954Z,8.98
2023-01-13T13:53:19.840Z,7.20
2023-01-13T13:56:26.039Z,8.05
2023-01-13T13:59:34.506Z,8.53
2023-01-13T14:02:37.724Z,9.52
2023-01-13T14:05:53.804Z,9.55
2023-01-13T14:08:56.536Z,10.05
2023-01-13T14:12:01.662Z,11.48
2023-01-13T14:15:05.569Z,9.23
2023-01-13T14:18:14.086Z,9.23
2023-01-13T14:21:22.327Z,8.60
2023-01-13T14:24:25.466Z,12.18
2023-01-13T14:27:29.357Z,15.50
2023-01-13T14:30:34.010Z,11.13
2023-01-13T14:33:39.072Z,14.70
2023-01-13T14:36:43.375Z,14.52
2023-01-13T14:39:46.331Z,11.82
2023-01-13T14:42:57.178Z,11.23
2023-01-13T14:46:02.928Z,11.20
2023-01-13T14:49:06.099Z,12.30
2023-01-13T14:52:17.003Z,13.90
2023-01-13T14:55:30.207Z,12.23
2023-01-13T14:58:32.966Z,11.68
2023-01-13T15:01:36.937Z,12.10
2023-01-13T15:04:39.744Z,13.60
2023-01-13T15:07:49.169Z,15.48
2023-01-13T15:10:55.569Z,17.08
2023-01-13T15:14:01.507Z,14.45
2023-01-13T15:17:14.633Z,13.83
2023-01-13T15:20:19.322Z,14.75
2023-01-13T15:23:23.430Z,16.42
2023-01-13T15:26:27.627Z,16.23
2023-01-13T15:29:30.443Z,16.50
2023-01-13T15:32:33.096Z,15.20
2023-01-13T15:35:37.732Z,16.17
2023-01-13T15:38:41.712Z,15.88
2023-01-13T15:42:03.045Z,16.98
2023-01-13T15:45:24.823Z,18.05
2023-01-13T15:48:30.707Z,18.53
2023-01-13T15:51:33.604Z,16.05
2023-01-13T15:54:37.639Z,16.23
2023-01-13T15:57:47.963Z,13.32
2023-01-13T16:00:51.704Z,15.63
2023-01-13T16:03:55.912Z,15.77
2023-01-13T16:06:59.590Z,12.90
2023-01-13T16:10:05.059Z,14.65
2023-01-13T16:13:07.909Z,80.38
2023-01-13T16:16:19.276Z,18.55
2023-01-13T16:19:22.842Z,16.07
2023-01-13T16:22:25.994Z,17.13
2023-01-13T16:25:30.028Z,19.77
2023-01-13T16:28:35.414Z,18.17
2023-01-13T16:31:38.906Z,16.05
2023-01-13T16:34:42.038Z,16.57
2023-01-13T16:37:47.232Z,16.35
2023-01-13T16:40:52.836Z,16.25
2023-01-13T16:43:55.655Z,17.75
2023-01-13T16:46:58.231Z,14.68
2023-01-13T16:50:00.924Z,14.83
2023-01-13T16:53:04.977Z,16.63
2023-01-13T16:56:23.434Z,17.77
2023-01-13T16:59:26.236Z,17.70
2023-01-13T17:02:28.927Z,15.90
2023-01-13T17:05:31.641Z,16.73
2023-01-13T17:08:34.369Z,16.85
2023-01-13T17:11:38.425Z,17.75
2023-01-13T17:14:43.316Z,20.00
2023-01-13T17:17:48.895Z,16.65
2023-01-13T17:20:52.010Z,18.97
2023-01-13T17:23:54.966Z,18.92
2023-01-13T17:26:59.147Z,17.42
2023-01-13T17:30:01.898Z,17.55
2023-01-13T17:33:06.717Z,17.75
2023-01-13T17:36:09.935Z,15.57
2023-01-13T17:39:16.204Z,19.17
2023-01-13T17:42:20.513Z,18.75
2023-01-13T17:45:23.189Z,17.67
2023-01-13T17:48:26.035Z,19.50
2023-01-13T17:51:29.880Z,19.90
2023-01-13T17:54:32.754Z,20.15
2023-01-13T17:57:36.885Z,24.40
2023-01-13T18:00:39.584Z,21.65
2023-01-13T18:03:42.399Z,21.33
2023-01-13T18:06:45.607Z,17.60
2023-01-13T18:09:48.323Z,18.67
2023-01-13T18:12:52.358Z,18.13
2023-01-13T18:16:04.279Z,17.27
2023-01-13T18:19:25.704Z,19.92
2023-01-13T18:22:47.033Z,21.03
2023-01-13T18:26:08.222Z,21.52
2023-01-13T18:29:12.411Z,21.13
2023-01-13T18:32:16.135Z,23.27
2023-01-13T18:35:19.082Z,21.85
2023-01-13T18:38:26.320Z,20.63
2023-01-13T18:41:47.849Z,19.90
2023-01-13T18:44:53.221Z,20.08
2023-01-13T18:47:57.774Z,17.90
2023-01-13T18:51:01.013Z,17.30
2023-01-13T18:54:04.451Z,18.27
2023-01-13T18:57:07.377Z,21.08
2023-01-13T19:00:14.913Z,20.73
2023-01-13T19:03:29.552Z,18.42
2023-01-13T19:06:33.785Z,19.08
2023-01-13T19:09:36.570Z,18.37
2023-01-13T19:12:39.492Z,19.60
2023-01-13T19:15:43.848Z,19.65
2023-01-13T19:18:47.124Z,19.27
2023-01-13T19:21:50.237Z,20.38
2023-01-13T19:24:53.310Z,17.60
2023-01-13T19:27:56.194Z,20.88
2023-01-13T19:31:02.463Z,18.50
2023-01-13T19:34:05.859Z,20.42
2023-01-13T19:37:08.633Z,19.90
2023-01-13T19:40:15.779Z,20.17
2023-01-13T19:43:37.337Z,20.13
2023-01-13T19:46:41.587Z,18.95
2023-01-13T19:49:44.488Z,17.92
2023-01-13T19:52:47.791Z,18.15
2023-01-13T19:55:50.888Z,20.13
2023-01-13T19:58:54.133Z,19.92
2023-01-13T20:02:00.758Z,19.83
2023-01-13T20:05:05.868Z,21.27
2023-01-13T20:08:08.878Z,22.13
2023-01-13T20:11:21.498Z,21.03
2023-01-13T20:14:25.889Z,21.35
2023-01-13T20:17:30.873Z,20.77
2023-01-13T20:20:37.159Z,21.05
2023-01-13T20:23:40.036Z,21.55
2023-01-13T20:26:42.797Z,20.40
2023-01-13T20:29:47.837Z,19.60
2023-01-13T20:32:52.656Z,19.45
2023-01-13T20:35:58.354Z,19.85
2023-01-13T20:39:02.403Z,20.67
2023-01-13T20:42:24.132Z,19.20
2023-01-13T20:45:26.842Z,18.60
2023-01-13T20:48:30.810Z,20.20
2023-01-13T20:51:33.681Z,20.73
2023-01-13T20:54:37.125Z,22.08
2023-01-13T20:57:41.714Z,29.60
2023-01-13T21:00:44.890Z,29.75
2023-01-13T21:03:49.177Z,28.90
2023-01-13T21:06:52.371Z,24.85
2023-01-13T21:09:55.118Z,26.25
2023-01-13T21:13:16.190Z,25.07
2023-01-13T21:16:18.888Z,23.88
2023-01-13T21:19:22.984Z,22.83
2023-01-13T21:22:25.679Z,21.02
2023-01-13T21:25:28.858Z,22.42
2023-01-13T21:28:58.159Z,21.73
2023-01-13T21:32:01.027Z,21.23
2023-01-13T21:35:05.797Z,34.85
2023-01-13T21:38:10.517Z,39.42
2023-01-13T21:41:14.427Z,21.13
2023-01-13T21:44:38.890Z,21.03
2023-01-13T21:47:50.390Z,18.88
2023-01-13T21:50:54.694Z,18.13
2023-01-13T21:53:57.612Z,18.45
2023-01-13T21:57:00.350Z,18.58
2023-01-13T22:00:05.315Z,19.93
2023-01-13T22:03:09.695Z,21.52
2023-01-13T22:06:13.842Z,21.30
2023-01-13T22:09:16.888Z,22.40
2023-01-13T22:12:23.526Z,22.63
2023-01-13T22:15:28.325Z,21.70
2023-01-13T22:18:30.983Z,21.38
2023-01-13T22:21:35.684Z,20.77
2023-01-13T22:24:43.100Z,23.95
2023-01-13T22:27:48.184Z,21.20
2023-01-13T22:30:53.465Z,23.43
2023-01-13T22:33:56.124Z,25.33
2023-01-13T22:37:00.377Z,21.65
2023-01-13T22:40:03.979Z,23.23
2023-01-13T22:43:06.836Z,22.65
2023-01-13T22:46:11.657Z,20.03
2023-01-13T22:49:15.329Z,21.88
2023-01-13T22:52:20.285Z,21.70
2023-01-13T22:55:23.073Z,21.67
2023-01-13T22:58:26.317Z,21.45
2023-01-13T23:01:30.926Z,20.23
2023-01-13T23:04:33.776Z,21.20
2023-01-13T23:07:37.871Z,20.48
2023-01-13T23:10:41.812Z,23.08
2023-01-13T23:13:45.409Z,21.15
2023-01-13T23:16:48.110Z,22.90
2023-01-13T23:19:50.902Z,25.00
2023-01-13T23:22:55.075Z,24.10
2023-01-13T23:25:57.818Z,24.50
2023-01-13T23:29:02.023Z,24.00
2023-01-13T23:32:05.295Z,23.37
2023-01-13T23:35:09.041Z,24.63
2023-01-13T23:38:13.243Z,24.42
2023-01-13T23:41:18.943Z,23.50
2023-01-13T23:44:21.667Z,23.40
2023-01-13T23:47:24.351Z,24.37
2023-01-13T23:50:28.866Z,24.23
2023-01-13T23:53:35.408Z,25.05
2023-01-13T23:56:39.566Z,24.83
2023-01-13T23:59:42.432Z,25.38
